createdAt,value
2022-08-20T00:00:18.338Z,20.97
2022-08-20T00:02:51.027Z,20.78
2022-08-20T00:05:20.957Z,20.53
2022-08-20T00:07:47.522Z,20.69
2022-08-20T00:10:13.994Z,20.92
2022-08-20T00:12:44.675Z,20.85
2022-08-20T00:15:12.364Z,20.67
2022-08-20T00:17:39.617Z,20.61
2022-08-20T00:20:08.817Z,20.46
2022-08-20T00:22:35.511Z,20.27
2022-08-20T00:25:02.390Z,20.36
2022-08-20T00:27:29.022Z,20.61
2022-08-20T00:29:55.526Z,20.65
2022-08-20T00:32:22.553Z,20.50
2022-08-20T00:34:49.110Z,20.46
2022-08-20T00:37:15.621Z,20.47
2022-08-20T00:39:42.166Z,20.50
2022-08-20T00:42:08.737Z,20.44
2022-08-20T00:44:35.665Z,20.17
2022-08-20T00:47:02.312Z,20.13
2022-08-20T00:49:30.513Z,20.05
2022-08-20T00:52:06.086Z,20.45
2022-08-20T00:54:35.341Z,20.37
2022-08-20T00:57:04.654Z,20.12
2022-08-20T00:59:32.595Z,20.22
2022-08-20T01:02:00.496Z,20.15
2022-08-20T01:04:28.398Z,19.94
2022-08-20T01:06:55.224Z,20.18
2022-08-20T01:09:33.466Z,20.06
2022-08-20T01:12:09.893Z,20.18
2022-08-20T01:14:36.434Z,20.08
2022-08-20T01:17:05.103Z,19.87
2022-08-20T01:19:55.266Z,19.75
2022-08-20T01:22:46.990Z,19.73
2022-08-20T01:25:24.058Z,19.63
2022-08-20T01:27:55.204Z,19.64
2022-08-20T01:30:23.914Z,19.70
2022-08-20T01:32:50.746Z,19.70
2022-08-20T01:35:21.288Z,19.68
2022-08-20T01:37:47.797Z,19.72
2022-08-20T01:40:17.232Z,19.69
2022-08-20T01:42:52.829Z,19.72
2022-08-20T01:45:27.962Z,19.75
2022-08-20T01:47:57.503Z,19.64
2022-08-20T01:50:26.109Z,19.58
2022-08-20T01:53:06.640Z,19.58
2022-08-20T01:55:33.322Z,19.67
2022-08-20T01:58:00.240Z,19.66
2022-08-20T02:00:26.881Z,19.51
2022-08-20T02:02:53.407Z,19.61
2022-08-20T02:05:21.181Z,19.71
2022-08-20T02:07:47.718Z,19.78
2022-08-20T02:10:15.506Z,19.88
2022-08-20T02:12:42.149Z,19.90
2022-08-20T02:15:10.487Z,19.76
2022-08-20T02:17:38.750Z,19.82
2022-08-20T02:20:08.122Z,19.93
2022-08-20T02:22:37.741Z,19.94
2022-08-20T02:25:05.978Z,19.98
2022-08-20T02:27:32.457Z,19.79
2022-08-20T02:30:01.439Z,19.81
2022-08-20T02:32:33.446Z,19.50
2022-08-20T02:35:03.314Z,19.49
2022-08-20T02:37:30.273Z,19.47
2022-08-20T02:39:56.895Z,19.37
2022-08-20T02:42:23.857Z,19.44
2022-08-20T02:44:50.380Z,19.53
2022-08-20T02:47:17.240Z,19.34
2022-08-20T02:49:44.090Z,19.28
2022-08-20T02:52:10.615Z,19.35
2022-08-20T02:54:37.196Z,19.44
2022-08-20T02:57:04.623Z,19.62
2022-08-20T02:59:31.400Z,19.54
2022-08-20T03:02:00.554Z,19.71
2022-08-20T03:04:28.618Z,19.65
2022-08-20T03:06:55.103Z,19.70
2022-08-20T03:09:21.835Z,20.16
2022-08-20T03:11:48.804Z,19.66
2022-08-20T03:14:15.297Z,19.62
2022-08-20T03:16:41.806Z,19.47
2022-08-20T03:19:08.558Z,19.46
2022-08-20T03:21:35.273Z,19.35
2022-08-20T03:24:01.786Z,19.31
2022-08-20T03:26:28.350Z,19.33
2022-08-20T03:28:54.890Z,19.36
2022-08-20T03:31:21.453Z,19.37
2022-08-20T03:33:52.660Z,19.23
2022-08-20T03:36:28.152Z,19.46
2022-08-20T03:39:00.506Z,19.53
2022-08-20T03:41:27.360Z,19.48
2022-08-20T03:43:54.542Z,19.83
2022-08-20T03:46:23.221Z,19.28
2022-08-20T03:48:50.810Z,19.33
2022-08-20T03:51:27.466Z,19.45
2022-08-20T03:53:53.971Z,19.35
2022-08-20T03:56:20.495Z,19.34
2022-08-20T03:58:46.978Z,19.54
2022-08-20T04:01:44.260Z,19.49
2022-08-20T04:04:00.351Z,19.36
2022-08-20T04:06:29.167Z,19.10
2022-08-20T04:08:56.349Z,18.99
2022-08-20T04:11:24.152Z,18.75
2022-08-20T04:13:50.699Z,18.96
2022-08-20T04:16:18.241Z,19.03
2022-08-20T04:18:56.065Z,19.23
2022-08-20T04:21:33.071Z,19.33
2022-08-20T04:24:00.535Z,19.04
2022-08-20T04:26:27.130Z,18.95
2022-08-20T04:28:55.358Z,18.94
2022-08-20T04:31:25.343Z,18.95
2022-08-20T04:33:52.562Z,19.07
2022-08-20T04:36:19.309Z,18.80
2022-08-20T04:38:47.832Z,18.97
2022-08-20T04:41:22.561Z,18.94
2022-08-20T04:43:51.075Z,18.83
2022-08-20T04:46:17.758Z,19.22
2022-08-20T04:48:48.782Z,19.29
2022-08-20T04:51:17.954Z,19.19
2022-08-20T04:53:45.282Z,19.31
2022-08-20T04:56:23.158Z,19.23
2022-08-20T04:58:49.975Z,19.25
2022-08-20T05:01:16.712Z,19.26
2022-08-20T05:03:43.319Z,19.45
2022-08-20T05:06:10.958Z,19.55
2022-08-20T05:08:38.560Z,19.68
2022-08-20T05:11:07.190Z,19.93
2022-08-20T05:13:52.858Z,20.01
2022-08-20T05:16:19.760Z,20.01
2022-08-20T05:18:51.687Z,19.98
2022-08-20T05:21:19.290Z,19.95
2022-08-20T05:23:45.966Z,20.23
2022-08-20T05:26:13.047Z,20.30
2022-08-20T05:28:54.256Z,20.51
2022-08-20T05:31:32.537Z,20.57
2022-08-20T05:34:10.432Z,20.71
2022-08-20T05:36:41.730Z,20.69
2022-08-20T05:39:09.073Z,20.68
2022-08-20T05:41:36.295Z,20.61
2022-08-20T05:44:02.909Z,20.76
2022-08-20T05:46:31.367Z,20.75
2022-08-20T05:48:59.783Z,20.90
2022-08-20T05:51:27.011Z,21.13
2022-08-20T05:53:54.630Z,21.37
2022-08-20T05:56:27.040Z,21.43
2022-08-20T05:58:54.158Z,22.04
2022-08-20T06:01:20.934Z,22.28
2022-08-20T06:04:06.375Z,21.64
2022-08-20T06:06:44.947Z,21.45
2022-08-20T06:09:13.734Z,21.51
2022-08-20T06:11:40.246Z,21.64
2022-08-20T06:14:06.770Z,21.79
2022-08-20T06:16:33.309Z,22.00
2022-08-20T06:18:59.955Z,22.27
2022-08-20T06:21:29.624Z,22.25
2022-08-20T06:23:58.046Z,22.28
2022-08-20T06:26:29.842Z,22.16
2022-08-20T06:28:57.858Z,22.12
2022-08-20T06:31:24.980Z,22.01
2022-08-20T06:33:51.502Z,21.96
2022-08-20T06:38:46.165Z,22.80
2022-08-20T06:41:12.733Z,22.57
2022-08-20T06:43:39.211Z,23.94
2022-08-20T06:46:06.962Z,23.38
2022-08-20T06:48:33.877Z,24.12
2022-08-20T06:51:00.536Z,24.50
2022-08-20T06:53:27.046Z,24.20
2022-08-20T06:55:54.644Z,24.41
2022-08-20T06:58:36.294Z,25.06
2022-08-20T07:01:08.740Z,25.16
2022-08-20T07:03:37.606Z,24.55
2022-08-20T07:06:04.150Z,25.60
2022-08-20T07:08:30.632Z,25.85
2022-08-20T07:10:57.130Z,25.69
2022-08-20T07:13:24.399Z,25.71
2022-08-20T07:15:52.980Z,25.16
2022-08-20T07:18:28.458Z,26.89
2022-08-20T07:20:57.256Z,27.06
2022-08-20T07:23:27.090Z,27.12
2022-08-20T07:25:53.723Z,27.20
2022-08-20T07:28:21.108Z,27.39
2022-08-20T07:31:13.332Z,27.61
2022-08-20T07:33:44.350Z,26.36
2022-08-20T07:36:11.996Z,27.39
2022-08-20T07:38:38.462Z,27.23
2022-08-20T07:41:09.972Z,28.09
2022-08-20T07:43:36.700Z,27.91
2022-08-20T07:46:07.616Z,28.22
2022-08-20T07:48:36.414Z,28.44
2022-08-20T07:51:04.215Z,28.28
2022-08-20T07:53:35.214Z,28.52
2022-08-20T07:56:06.005Z,28.53
2022-08-20T07:58:33.771Z,28.14
2022-08-20T08:01:00.687Z,28.88
2022-08-20T08:03:40.832Z,29.87
2022-08-20T08:06:17.281Z,30.18
2022-08-20T08:08:55.827Z,28.20
2022-08-20T08:11:22.535Z,30.15
2022-08-20T08:13:49.091Z,30.00
2022-08-20T08:16:15.757Z,29.58
2022-08-20T08:18:45.242Z,28.59
2022-08-20T08:21:13.038Z,29.01
2022-08-20T08:23:44.371Z,28.85
2022-08-20T08:26:15.979Z,29.39
2022-08-20T08:28:45.364Z,29.79
2022-08-20T08:31:12.144Z,30.20
2022-08-20T08:33:40.736Z,30.79
2022-08-20T08:36:12.497Z,29.38
2022-08-20T08:38:39.981Z,30.49
2022-08-20T08:41:18.410Z,31.11
2022-08-20T08:43:49.601Z,30.67
2022-08-20T08:46:18.745Z,31.18
2022-08-20T08:48:47.399Z,31.10
2022-08-20T08:51:17.350Z,28.99
2022-08-20T08:53:46.319Z,29.05
2022-08-20T08:56:14.592Z,28.83
2022-08-20T08:58:41.622Z,29.69
2022-08-20T09:01:13.873Z,30.15
2022-08-20T09:03:56.471Z,30.90
2022-08-20T09:06:24.970Z,31.37
2022-08-20T09:08:58.043Z,30.06
2022-08-20T09:11:25.517Z,30.11
2022-08-20T09:13:54.231Z,30.68
2022-08-20T09:16:22.801Z,30.65
2022-08-20T09:18:49.820Z,29.95
2022-08-20T09:21:16.466Z,28.67
2022-08-20T09:23:43.243Z,28.03
2022-08-20T09:26:10.270Z,28.39
2022-08-20T09:28:37.266Z,28.38
2022-08-20T09:31:04.400Z,29.30
2022-08-20T09:33:31.374Z,29.42
2022-08-20T09:35:58.025Z,28.51
2022-08-20T09:38:24.617Z,27.96
2022-08-20T09:40:51.185Z,28.13
2022-08-20T09:43:17.797Z,27.77
2022-08-20T09:45:44.310Z,27.50
2022-08-20T09:48:10.847Z,27.37
2022-08-20T09:50:40.630Z,27.09
2022-08-20T09:53:07.368Z,27.67
2022-08-20T09:55:35.967Z,27.55
2022-08-20T09:58:04.182Z,27.41
2022-08-20T10:00:30.780Z,27.50
2022-08-20T10:02:57.385Z,26.07
2022-08-20T10:05:23.911Z,26.23
2022-08-20T10:07:50.501Z,26.09
2022-08-20T10:10:16.993Z,26.18
2022-08-20T10:12:43.626Z,25.73
2022-08-20T10:15:10.657Z,26.14
2022-08-20T10:17:38.704Z,25.34
2022-08-20T10:20:05.649Z,24.43
2022-08-20T10:22:32.801Z,23.38
2022-08-20T10:24:59.357Z,23.36
2022-08-20T10:27:25.931Z,24.20
2022-08-20T10:29:52.386Z,24.09
2022-08-20T10:32:19.094Z,23.75
2022-08-20T10:34:47.604Z,24.04
2022-08-20T10:37:15.569Z,24.44
2022-08-20T10:39:42.118Z,23.96
2022-08-20T10:42:08.659Z,24.27
2022-08-20T10:44:35.124Z,24.14
2022-08-20T10:47:24.710Z,24.06
2022-08-20T10:49:52.882Z,24.55
2022-08-20T10:52:20.307Z,25.02
2022-08-20T10:54:46.994Z,24.04
2022-08-20T10:57:17.914Z,24.44
2022-08-20T10:59:46.085Z,24.25
2022-08-20T11:02:13.205Z,24.61
2022-08-20T11:04:41.041Z,24.68
2022-08-20T11:07:55.271Z,24.76
2022-08-20T11:10:14.812Z,25.23
2022-08-20T11:12:42.039Z,24.81
2022-08-20T11:15:12.037Z,24.59
2022-08-20T11:17:40.832Z,24.70
2022-08-20T11:20:07.989Z,24.92
2022-08-20T11:22:35.048Z,25.26
2022-08-20T11:25:01.768Z,25.29
2022-08-20T11:27:33.527Z,24.94
2022-08-20T11:30:00.654Z,24.61
2022-08-20T11:32:27.275Z,25.09
2022-08-20T11:34:53.862Z,24.52
2022-08-20T11:37:21.558Z,24.11
2022-08-20T11:39:48.128Z,24.29
2022-08-20T11:42:14.695Z,24.48
2022-08-20T11:44:41.167Z,24.55
2022-08-20T11:47:08.054Z,24.16
2022-08-20T11:49:35.729Z,24.46
2022-08-20T11:52:02.622Z,24.62
2022-08-20T11:54:29.330Z,25.02
2022-08-20T11:56:57.894Z,24.76
2022-08-20T11:59:25.542Z,25.16
2022-08-20T12:02:03.065Z,25.71
2022-08-20T12:04:33.713Z,25.34
2022-08-20T12:07:08.891Z,25.93
2022-08-20T12:09:35.438Z,26.54
2022-08-20T12:12:06.863Z,25.82
2022-08-20T12:14:33.461Z,25.51
2022-08-20T12:17:19.712Z,25.29
2022-08-20T12:19:46.264Z,25.39
2022-08-20T12:22:22.475Z,25.53
2022-08-20T12:24:52.076Z,25.22
2022-08-20T12:27:18.734Z,25.52
2022-08-20T12:29:46.186Z,25.17
2022-08-20T12:32:13.231Z,25.03
2022-08-20T12:34:41.673Z,24.88
2022-08-20T12:37:12.865Z,24.67
2022-08-20T12:39:44.068Z,24.75
2022-08-20T12:42:11.035Z,24.34
2022-08-20T12:44:38.407Z,24.36
2022-08-20T12:47:15.569Z,24.62
2022-08-20T12:49:43.243Z,24.41
2022-08-20T12:52:09.792Z,24.24
2022-08-20T12:54:36.316Z,24.72
2022-08-20T12:57:02.825Z,24.01
2022-08-20T12:59:33.769Z,23.51
2022-08-20T13:02:09.257Z,23.46
2022-08-20T13:04:40.842Z,23.35
2022-08-20T13:07:07.532Z,23.29
2022-08-20T13:09:38.046Z,23.42
2022-08-20T13:12:07.340Z,23.28
2022-08-20T13:14:34.333Z,23.23
2022-08-20T13:17:01.782Z,23.18
2022-08-20T13:19:29.975Z,23.24
2022-08-20T13:21:56.928Z,23.16
2022-08-20T13:24:23.469Z,23.32
2022-08-20T13:26:50.539Z,23.79
2022-08-20T13:29:17.661Z,23.85
2022-08-20T13:31:44.139Z,24.28
2022-08-20T13:34:10.866Z,24.34
2022-08-20T13:36:37.533Z,24.08
2022-08-20T13:39:05.210Z,24.45
2022-08-20T13:41:31.809Z,24.75
2022-08-20T13:43:58.281Z,24.78
2022-08-20T13:46:24.838Z,24.40
2022-08-20T13:48:51.403Z,23.93
2022-08-20T13:51:19.052Z,24.00
2022-08-20T13:53:45.943Z,23.93
2022-08-20T13:56:13.298Z,24.34
2022-08-20T13:58:39.801Z,24.60
2022-08-20T14:01:06.430Z,24.94
2022-08-20T14:03:34.769Z,24.81
2022-08-20T14:06:02.106Z,24.86
2022-08-20T14:08:28.992Z,24.66
2022-08-20T14:10:55.536Z,24.59
2022-08-20T14:13:23.413Z,24.37
2022-08-20T14:15:50.370Z,24.61
2022-08-20T14:18:16.902Z,24.43
2022-08-20T14:20:45.600Z,24.85
2022-08-20T14:23:12.657Z,24.76
2022-08-20T14:25:39.168Z,24.96
2022-08-20T14:28:10.327Z,25.48
2022-08-20T14:30:36.840Z,26.32
2022-08-20T14:33:03.767Z,26.05
2022-08-20T14:35:30.886Z,27.16
2022-08-20T14:37:57.928Z,27.74
2022-08-20T14:40:25.458Z,28.26
2022-08-20T14:42:52.720Z,28.32
2022-08-20T14:45:20.423Z,28.17
2022-08-20T14:47:53.809Z,28.83
2022-08-20T14:50:22.628Z,29.40
2022-08-20T14:52:49.268Z,28.45
2022-08-20T14:55:19.271Z,27.52
2022-08-20T14:57:46.461Z,28.32
2022-08-20T15:00:14.712Z,28.45
2022-08-20T15:02:41.439Z,28.02
2022-08-20T15:05:08.313Z,28.11
2022-08-20T15:07:36.874Z,28.05
2022-08-20T15:10:06.443Z,27.63
2022-08-20T15:12:35.233Z,27.43
2022-08-20T15:15:15.847Z,27.42
2022-08-20T15:17:44.043Z,27.25
2022-08-20T15:20:20.464Z,26.96
2022-08-20T15:22:48.229Z,26.94
2022-08-20T15:25:16.782Z,26.46
2022-08-20T15:27:44.633Z,26.28
2022-08-20T15:30:13.637Z,26.62
2022-08-20T15:32:40.391Z,26.17
2022-08-20T15:35:08.056Z,26.16
2022-08-20T15:37:34.713Z,26.54
2022-08-20T15:40:04.213Z,26.21
2022-08-20T15:42:30.764Z,26.28
2022-08-20T15:44:57.273Z,25.92
2022-08-20T15:47:26.503Z,26.10
2022-08-20T15:49:55.578Z,26.30
2022-08-20T15:52:23.118Z,26.11
2022-08-20T15:54:49.641Z,25.93
2022-08-20T15:57:48.378Z,25.86
2022-08-20T16:00:20.119Z,25.88
2022-08-20T16:03:08.567Z,25.43
2022-08-20T16:05:44.919Z,25.62
2022-08-20T16:08:14.614Z,25.35
2022-08-20T16:11:01.431Z,25.25
2022-08-20T16:13:46.532Z,25.17
2022-08-20T16:16:21.233Z,25.11
2022-08-20T16:18:50.185Z,25.52
2022-08-20T16:21:19.209Z,25.24
2022-08-20T16:23:45.846Z,25.08
2022-08-20T16:26:31.856Z,25.23
2022-08-20T16:28:58.377Z,25.09
2022-08-20T16:31:28.324Z,25.04
2022-08-20T16:34:03.841Z,25.02
2022-08-20T16:37:10.132Z,25.03
2022-08-20T16:39:54.680Z,24.92
2022-08-20T16:42:23.312Z,25.18
2022-08-20T16:44:52.634Z,25.01
2022-08-20T16:47:22.004Z,24.75
2022-08-20T16:50:00.799Z,24.69
2022-08-20T16:52:27.844Z,24.65
2022-08-20T16:54:54.451Z,24.87
2022-08-20T16:57:21.157Z,24.96
2022-08-20T17:00:14.913Z,24.63
2022-08-20T17:02:50.788Z,24.84
2022-08-20T17:05:17.501Z,24.76
2022-08-20T17:07:51.380Z,24.90
2022-08-20T17:10:24.083Z,24.71
2022-08-20T17:12:54.831Z,24.85
2022-08-20T17:15:25.594Z,25.06
2022-08-20T17:17:55.565Z,24.49
2022-08-20T17:20:23.563Z,24.68
2022-08-20T17:23:08.109Z,24.71
2022-08-20T17:25:38.206Z,24.53
2022-08-20T17:28:18.941Z,24.52
2022-08-20T17:30:46.243Z,24.35
2022-08-20T17:33:30.099Z,24.29
2022-08-20T17:36:04.275Z,24.37
2022-08-20T17:38:36.947Z,24.29
2022-08-20T17:41:09.027Z,24.43
2022-08-20T17:43:35.682Z,24.42
2022-08-20T17:46:16.227Z,24.29
2022-08-20T17:48:44.443Z,24.30
2022-08-20T17:51:15.035Z,23.96
2022-08-20T17:53:42.870Z,23.93
2022-08-20T17:56:29.242Z,24.11
2022-08-20T17:59:03.352Z,24.11
2022-08-20T18:01:30.385Z,24.05
2022-08-20T18:03:57.875Z,23.98
2022-08-20T18:06:27.359Z,24.06
2022-08-20T18:09:02.711Z,24.05
2022-08-20T18:11:36.620Z,23.80
2022-08-20T18:14:17.541Z,23.58
2022-08-20T18:17:04.301Z,23.57
2022-08-20T18:19:46.631Z,23.77
2022-08-20T18:22:16.603Z,23.94
2022-08-20T18:24:57.673Z,23.90
2022-08-20T18:27:26.868Z,23.79
2022-08-20T18:29:58.858Z,23.85
2022-08-20T18:32:33.513Z,23.79
2022-08-20T18:35:07.705Z,23.93
2022-08-20T18:37:34.880Z,23.84
2022-08-20T18:40:06.965Z,23.78
2022-08-20T18:42:35.637Z,23.77
2022-08-20T18:45:02.952Z,23.90
2022-08-20T18:47:39.070Z,23.73
2022-08-20T18:50:23.734Z,23.71
2022-08-20T18:52:51.960Z,23.61
2022-08-20T18:55:29.571Z,23.52
2022-08-20T18:58:00.546Z,23.28
2022-08-20T19:00:32.720Z,23.40
2022-08-20T19:03:08.346Z,23.21
2022-08-20T19:05:46.862Z,23.34
2022-08-20T19:08:16.203Z,23.26
2022-08-20T19:10:47.691Z,23.21
2022-08-20T19:13:20.233Z,23.44
2022-08-20T19:15:51.917Z,23.40
2022-08-20T19:18:25.115Z,23.58
2022-08-20T19:20:55.190Z,23.36
2022-08-20T19:23:24.083Z,23.55
2022-08-20T19:25:59.933Z,23.28
2022-08-20T19:28:29.337Z,23.25
2022-08-20T19:30:56.402Z,23.15
2022-08-20T19:33:30.214Z,23.23
2022-08-20T19:36:08.283Z,23.24
2022-08-20T19:38:34.851Z,23.30
2022-08-20T19:41:11.027Z,23.29
2022-08-20T19:43:44.677Z,23.06
2022-08-20T19:46:12.760Z,23.00
2022-08-20T19:48:51.822Z,22.36
2022-08-20T19:51:35.991Z,22.47
2022-08-20T19:54:07.399Z,22.86
2022-08-20T19:56:40.832Z,23.15
2022-08-20T19:59:09.021Z,22.90
2022-08-20T20:01:36.346Z,23.00
2022-08-20T20:04:04.669Z,23.26
2022-08-20T20:06:34.838Z,23.13
2022-08-20T20:09:03.997Z,22.89
2022-08-20T20:11:34.053Z,22.75
2022-08-20T20:14:02.011Z,22.75
2022-08-20T20:16:29.674Z,22.66
2022-08-20T20:19:22.728Z,22.70
2022-08-20T20:21:47.770Z,22.53
2022-08-20T20:24:22.917Z,22.61
2022-08-20T20:26:49.555Z,22.47
2022-08-20T20:29:26.971Z,22.56
2022-08-20T20:31:58.050Z,22.36
2022-08-20T20:34:27.049Z,22.56
2022-08-20T20:37:04.669Z,22.95
2022-08-20T20:39:41.789Z,22.39
2022-08-20T20:42:09.918Z,22.15
2022-08-20T20:44:38.010Z,22.92
2022-08-20T20:47:06.185Z,22.89
2022-08-20T20:49:47.386Z,23.16
2022-08-20T20:52:23.059Z,22.09
2022-08-20T20:54:50.217Z,22.32
2022-08-20T20:57:16.751Z,22.42
2022-08-20T20:59:43.605Z,22.79
2022-08-20T21:02:10.203Z,23.06
2022-08-20T21:04:39.555Z,22.49
2022-08-20T21:07:09.973Z,22.36
2022-08-20T21:09:38.299Z,22.67
2022-08-20T21:12:05.476Z,22.64
2022-08-20T21:14:32.006Z,22.37
2022-08-20T21:17:00.553Z,22.57
2022-08-20T21:19:27.477Z,22.29
2022-08-20T21:21:53.998Z,22.60
2022-08-20T21:24:20.631Z,22.65
2022-08-20T21:26:47.737Z,22.67
2022-08-20T21:29:16.374Z,22.64
2022-08-20T21:31:44.598Z,22.52
2022-08-20T21:34:13.761Z,22.24
2022-08-20T21:36:40.579Z,22.42
2022-08-20T21:39:07.254Z,22.71
2022-08-20T21:41:34.065Z,22.65
2022-08-20T21:44:03.065Z,22.63
2022-08-20T21:46:31.160Z,22.49
2022-08-20T21:48:57.929Z,22.47
2022-08-20T21:51:25.430Z,22.14
2022-08-20T21:53:52.107Z,21.82
2022-08-20T21:56:18.879Z,22.30
2022-08-20T21:58:50.095Z,22.16
2022-08-20T22:01:17.151Z,21.95
2022-08-20T22:03:43.867Z,21.97
2022-08-20T22:06:15.416Z,21.94
2022-08-20T22:08:41.981Z,21.93
2022-08-20T22:11:09.719Z,22.33
2022-08-20T22:13:36.535Z,22.47
2022-08-20T22:16:05.026Z,22.37
2022-08-20T22:18:31.825Z,22.45
2022-08-20T22:20:58.382Z,22.35
2022-08-20T22:23:25.094Z,22.36
2022-08-20T22:25:51.875Z,22.25
2022-08-20T22:28:18.638Z,21.98
2022-08-20T22:30:45.218Z,21.96
2022-08-20T22:33:14.062Z,21.83
2022-08-20T22:35:46.463Z,21.80
2022-08-20T22:38:12.969Z,21.73
2022-08-20T22:40:39.526Z,21.90
2022-08-20T22:43:06.101Z,21.92
2022-08-20T22:45:32.786Z,22.09
2022-08-20T22:48:00.467Z,22.04
2022-08-20T22:50:27.005Z,21.84
2022-08-20T22:52:53.996Z,21.93
2022-08-20T22:55:21.017Z,21.96
2022-08-20T22:57:47.992Z,21.79
2022-08-20T23:00:16.928Z,22.05
2022-08-20T23:02:51.382Z,21.74
2022-08-20T23:05:22.254Z,21.68
2022-08-20T23:07:53.434Z,21.51
2022-08-20T23:10:21.031Z,21.28
2022-08-20T23:12:47.542Z,21.32
2022-08-20T23:15:14.041Z,21.16
2022-08-20T23:17:41.130Z,21.27
2022-08-20T23:20:09.527Z,21.33
2022-08-20T23:22:36.359Z,21.11
2022-08-20T23:25:04.082Z,21.32
2022-08-20T23:27:32.416Z,21.38
2022-08-20T23:29:58.958Z,21.39
2022-08-20T23:32:25.461Z,21.49
2022-08-20T23:34:52.194Z,21.34
2022-08-20T23:37:21.586Z,21.27
2022-08-20T23:39:49.803Z,21.26
2022-08-20T23:42:17.159Z,21.28
2022-08-20T23:44:43.805Z,21.35
2022-08-20T23:47:11.098Z,21.27
2022-08-20T23:49:37.841Z,21.43
2022-08-20T23:52:04.393Z,21.39
2022-08-20T23:54:31.742Z,21.07
2022-08-20T23:56:58.233Z,20.95
2022-08-20T23:59:25.519Z,21.07
